createdAt,value
2018-07-17T00:01:36.370Z,2.17
2018-07-17T00:04:04.145Z,2.30
2018-07-17T00:06:32.095Z,2.70
2018-07-17T00:08:59.708Z,2.03
2018-07-17T00:11:27.292Z,1.70
2018-07-17T00:13:54.877Z,1.60
2018-07-17T00:16:22.438Z,2.10
2018-07-17T00:18:50.061Z,1.70
2018-07-17T00:21:17.848Z,2.60
2018-07-17T00:23:45.404Z,3.80
2018-07-17T00:26:13.292Z,2.67
2018-07-17T00:28:40.800Z,2.23
2018-07-17T00:31:08.366Z,2.00
2018-07-17T00:33:36.125Z,2.20
2018-07-17T00:36:03.707Z,2.10
2018-07-17T00:38:31.315Z,2.10
2018-07-17T00:40:58.972Z,1.77
2018-07-17T00:43:26.772Z,2.03
2018-07-17T00:45:54.363Z,2.10
2018-07-17T00:48:21.932Z,2.57
2018-07-17T00:50:49.507Z,4.23
2018-07-17T00:53:17.232Z,1.83
2018-07-17T00:55:44.958Z,2.20
2018-07-17T00:58:12.494Z,2.23
2018-07-17T01:00:45.512Z,2.77
2018-07-17T01:03:18.763Z,2.13
2018-07-17T01:05:52.630Z,1.90
2018-07-17T01:08:25.919Z,2.13
2018-07-17T01:14:14.315Z,2.17
2018-07-17T01:16:41.985Z,2.13
2018-07-17T01:19:09.633Z,2.50
2018-07-17T01:21:37.839Z,2.10
2018-07-17T01:24:05.574Z,2.00
2018-07-17T01:26:33.173Z,1.93
2018-07-17T01:29:00.777Z,1.90
2018-07-17T01:31:28.300Z,1.87
2018-07-17T01:33:55.900Z,2.00
2018-07-17T01:36:23.495Z,2.23
2018-07-17T01:38:51.097Z,1.80
2018-07-17T01:41:18.789Z,2.40
2018-07-17T01:43:46.423Z,2.30
2018-07-17T01:46:14.018Z,1.83
2018-07-17T01:48:41.592Z,2.07
2018-07-17T01:51:09.180Z,1.63
2018-07-17T01:53:39.413Z,2.03
2018-07-17T01:56:07.337Z,1.50
2018-07-17T01:58:47.433Z,1.83
2018-07-17T02:01:15.005Z,1.97
2018-07-17T02:03:42.752Z,2.23
2018-07-17T02:06:10.354Z,2.73
2018-07-17T02:08:39.024Z,1.70
2018-07-17T02:11:06.701Z,2.20
2018-07-17T02:13:34.270Z,2.07
2018-07-17T02:16:01.862Z,2.10
2018-07-17T02:18:29.436Z,2.10
2018-07-17T02:20:57.187Z,2.10
2018-07-17T02:23:24.744Z,1.77
2018-07-17T02:25:54.499Z,2.60
2018-07-17T02:28:22.089Z,3.60
2018-07-17T02:30:49.698Z,2.60
2018-07-17T02:33:17.557Z,3.10
2018-07-17T02:35:45.209Z,4.30
2018-07-17T02:38:12.827Z,3.30
2018-07-17T02:40:40.398Z,2.43
2018-07-17T02:43:07.994Z,2.07
2018-07-17T02:45:35.589Z,2.20
2018-07-17T02:48:03.213Z,2.53
2018-07-17T02:50:30.803Z,2.97
2018-07-17T02:52:58.613Z,2.07
2018-07-17T02:55:26.241Z,2.40
2018-07-17T02:57:53.861Z,2.17
2018-07-17T03:00:21.503Z,5.03
2018-07-17T03:02:49.104Z,4.10
2018-07-17T03:05:16.664Z,3.20
2018-07-17T03:07:44.340Z,2.10
2018-07-17T03:10:11.948Z,2.40
2018-07-17T03:12:39.603Z,2.20
2018-07-17T03:15:07.273Z,2.07
2018-07-17T03:17:34.955Z,2.50
2018-07-17T03:20:02.540Z,1.70
2018-07-17T03:22:30.172Z,2.20
2018-07-17T03:24:58.006Z,2.13
2018-07-17T03:27:25.597Z,2.00
2018-07-17T03:29:53.140Z,2.03
2018-07-17T03:32:20.760Z,1.90
2018-07-17T03:34:48.332Z,2.53
2018-07-17T03:37:16.015Z,1.83
2018-07-17T03:39:43.574Z,3.60
2018-07-17T03:42:11.246Z,2.23
2018-07-17T03:44:38.942Z,2.10
2018-07-17T03:47:06.553Z,3.17
2018-07-17T03:49:34.165Z,2.67
2018-07-17T03:52:01.771Z,2.27
2018-07-17T03:54:29.361Z,2.10
2018-07-17T03:56:56.983Z,3.77
2018-07-17T03:59:24.572Z,2.67
2018-07-17T04:01:52.306Z,1.70
2018-07-17T04:04:20.226Z,3.27
2018-07-17T04:06:47.805Z,2.20
2018-07-17T04:09:15.745Z,2.60
2018-07-17T04:11:43.364Z,1.97
2018-07-17T04:14:10.964Z,2.90
2018-07-17T04:16:45.023Z,1.70
2018-07-17T04:19:13.095Z,2.40
2018-07-17T04:21:40.674Z,2.17
2018-07-17T04:24:08.601Z,2.00
2018-07-17T04:26:36.481Z,3.03
2018-07-17T04:29:04.645Z,2.70
2018-07-17T04:31:32.319Z,2.63
2018-07-17T04:33:59.914Z,2.60
2018-07-17T04:36:27.572Z,2.70
2018-07-17T04:38:55.214Z,2.53
2018-07-17T04:41:22.796Z,2.23
2018-07-17T04:43:50.402Z,2.40
2018-07-17T04:46:18.973Z,1.70
2018-07-17T04:48:46.571Z,1.67
2018-07-17T04:51:14.589Z,2.23
2018-07-17T04:53:42.233Z,1.53
2018-07-17T04:56:09.817Z,1.60
2018-07-17T04:58:37.480Z,2.97
2018-07-17T05:01:08.695Z,1.90
2018-07-17T05:03:36.373Z,2.73
2018-07-17T05:06:04.193Z,5.30
2018-07-17T05:08:31.810Z,11.57
2018-07-17T05:10:59.413Z,7.87
2018-07-17T05:13:27.348Z,9.00
2018-07-17T05:15:54.995Z,6.47
2018-07-17T05:18:22.693Z,5.27
2018-07-17T05:20:50.435Z,5.47
2018-07-17T05:23:18.056Z,6.23
2018-07-17T05:25:45.624Z,7.00
2018-07-17T05:28:13.303Z,7.20
2018-07-17T05:30:40.941Z,7.43
2018-07-17T05:33:08.569Z,8.33
2018-07-17T05:35:36.257Z,8.33
2018-07-17T05:38:03.839Z,7.80
2018-07-17T05:40:31.496Z,7.47
2018-07-17T05:42:59.132Z,8.53
2018-07-17T05:45:26.776Z,8.33
2018-07-17T05:47:54.515Z,8.17
2018-07-17T05:50:22.034Z,6.90
2018-07-17T05:52:49.649Z,7.37
2018-07-17T05:55:17.433Z,7.00
2018-07-17T05:57:45.059Z,6.50
2018-07-17T06:00:12.687Z,8.37
2018-07-17T06:02:40.236Z,7.53
2018-07-17T06:05:07.880Z,5.67
2018-07-17T06:07:35.896Z,5.23
2018-07-17T06:10:03.753Z,5.43
2018-07-17T06:12:31.432Z,4.47
2018-07-17T06:14:59.033Z,4.03
2018-07-17T06:17:26.632Z,3.90
2018-07-17T06:19:54.308Z,4.13
2018-07-17T06:22:21.866Z,3.70
2018-07-17T06:24:49.529Z,3.63
2018-07-17T06:27:17.480Z,3.80
2018-07-17T06:29:45.074Z,3.43
2018-07-17T06:32:12.681Z,3.63
2018-07-17T06:34:41.300Z,3.03
2018-07-17T06:37:08.921Z,3.40
2018-07-17T06:39:38.814Z,3.73
2018-07-17T06:42:06.474Z,3.50
2018-07-17T06:44:34.176Z,3.43
2018-07-17T06:47:01.774Z,3.47
2018-07-17T06:49:29.349Z,3.23
2018-07-17T06:51:56.972Z,3.50
2018-07-17T06:54:24.585Z,3.20
2018-07-17T06:56:52.236Z,3.50
2018-07-17T06:59:19.837Z,3.47
2018-07-17T07:01:47.442Z,3.30
2018-07-17T07:04:15.049Z,3.50
2018-07-17T07:06:42.655Z,3.07
2018-07-17T07:09:10.568Z,3.43
2018-07-17T07:11:38.434Z,3.33
2018-07-17T07:14:06.208Z,3.43
2018-07-17T07:16:33.849Z,3.33
2018-07-17T07:19:01.641Z,3.30
2018-07-17T07:21:30.374Z,3.33
2018-07-17T07:23:58.400Z,2.70
2018-07-17T07:26:25.989Z,3.50
2018-07-17T07:28:53.649Z,3.80
2018-07-17T07:31:21.280Z,3.20
2018-07-17T07:33:49.046Z,3.60
2018-07-17T07:36:16.732Z,3.33
2018-07-17T07:38:44.431Z,3.50
2018-07-17T07:41:12.062Z,3.30
2018-07-17T07:43:39.684Z,2.60
2018-07-17T07:46:07.257Z,3.10
2018-07-17T07:48:34.893Z,3.07
2018-07-17T07:51:02.598Z,3.33
2018-07-17T07:53:30.216Z,3.10
2018-07-17T07:55:58.059Z,2.60
2018-07-17T07:58:25.998Z,3.13
2018-07-17T08:00:53.659Z,2.83
2018-07-17T08:03:21.316Z,2.97
2018-07-17T08:05:48.997Z,2.60
2018-07-17T08:08:16.689Z,3.13
2018-07-17T08:10:44.379Z,3.83
2018-07-17T08:13:12.001Z,3.20
2018-07-17T08:15:39.649Z,2.60
2018-07-17T08:18:07.590Z,2.80
2018-07-17T08:20:35.205Z,3.20
2018-07-17T08:23:02.805Z,3.00
2018-07-17T08:25:30.672Z,3.17
2018-07-17T08:27:58.560Z,2.67
2018-07-17T08:30:26.218Z,3.00
2018-07-17T08:32:54.093Z,2.93
2018-07-17T08:35:21.792Z,2.97
2018-07-17T08:37:49.369Z,3.60
2018-07-17T08:40:16.996Z,2.77
2018-07-17T08:42:44.605Z,2.80
2018-07-17T08:45:12.341Z,2.40
2018-07-17T08:47:39.994Z,2.55
2018-07-17T08:50:07.609Z,2.70
2018-07-17T08:52:35.341Z,2.80
2018-07-17T08:55:03.038Z,2.40
2018-07-17T08:57:30.661Z,2.47
2018-07-17T08:59:58.353Z,3.35
2018-07-17T09:02:25.937Z,2.30
2018-07-17T09:04:53.509Z,2.40
2018-07-17T09:07:21.116Z,2.27
2018-07-17T09:09:48.706Z,2.52
2018-07-17T09:12:16.353Z,2.87
2018-07-17T09:14:44.021Z,2.70
2018-07-17T09:17:12.000Z,2.85
2018-07-17T09:19:39.589Z,2.67
2018-07-17T09:22:07.196Z,2.55
2018-07-17T09:24:34.906Z,2.35
2018-07-17T09:27:02.550Z,2.27
2018-07-17T09:29:30.141Z,2.33
2018-07-17T09:31:57.748Z,2.92
2018-07-17T09:34:25.381Z,3.00
2018-07-17T09:36:52.983Z,2.72
2018-07-17T09:39:20.524Z,2.95
2018-07-17T09:41:48.149Z,2.65
2018-07-17T09:44:15.785Z,2.37
2018-07-17T09:46:43.406Z,3.00
2018-07-17T09:49:11.218Z,2.37
2018-07-17T09:51:39.983Z,2.50
2018-07-17T09:54:09.118Z,2.55
2018-07-17T09:56:36.913Z,2.70
2018-07-17T09:59:04.549Z,2.83
2018-07-17T10:01:37.766Z,2.72
2018-07-17T10:04:05.427Z,3.17
2018-07-17T10:06:33.064Z,2.70
2018-07-17T10:09:00.673Z,2.50
2018-07-17T10:11:29.168Z,2.95
2018-07-17T10:13:56.804Z,2.58
2018-07-17T10:16:24.396Z,2.33
2018-07-17T10:18:52.021Z,2.52
2018-07-17T10:21:19.634Z,2.65
2018-07-17T10:23:47.214Z,2.40
2018-07-17T10:26:14.979Z,2.42
2018-07-17T10:28:42.557Z,2.25
2018-07-17T10:31:10.216Z,2.50
2018-07-17T10:33:37.960Z,2.33
2018-07-17T10:36:05.602Z,2.22
2018-07-17T10:38:33.252Z,2.40
2018-07-17T10:41:00.820Z,2.35
2018-07-17T10:43:28.403Z,2.10
2018-07-17T10:45:56.016Z,1.80
2018-07-17T10:48:23.899Z,2.25
2018-07-17T10:50:51.646Z,2.40
2018-07-17T10:53:19.232Z,2.10
2018-07-17T10:55:46.841Z,2.10
2018-07-17T10:58:14.456Z,2.08
2018-07-17T11:00:42.018Z,2.10
2018-07-17T11:03:09.545Z,1.60
2018-07-17T11:05:37.441Z,2.50
2018-07-17T11:08:05.093Z,2.50
2018-07-17T11:10:32.778Z,2.33
2018-07-17T11:13:00.377Z,2.60
2018-07-17T11:15:28.088Z,2.30
2018-07-17T11:17:55.636Z,2.67
2018-07-17T11:20:23.265Z,2.12
2018-07-17T11:22:50.869Z,2.33
2018-07-17T11:25:18.942Z,2.30
2018-07-17T11:27:46.580Z,2.58
2018-07-17T11:30:14.204Z,2.22
2018-07-17T11:32:41.974Z,2.08
2018-07-17T11:35:09.618Z,2.22
2018-07-17T11:37:37.412Z,2.27
2018-07-17T11:40:05.567Z,2.62
2018-07-17T11:42:33.141Z,2.42
2018-07-17T11:45:00.737Z,2.17
2018-07-17T11:47:28.360Z,2.05
2018-07-17T11:49:55.964Z,2.10
2018-07-17T11:52:23.585Z,1.80
2018-07-17T11:54:51.437Z,2.33
2018-07-17T11:57:19.260Z,2.20
2018-07-17T11:59:46.930Z,1.98
2018-07-17T12:02:14.601Z,1.90
2018-07-17T12:04:42.214Z,2.10
2018-07-17T12:07:10.157Z,2.00
2018-07-17T12:09:38.441Z,1.90
2018-07-17T12:12:07.359Z,1.80
2018-07-17T12:14:35.044Z,1.90
2018-07-17T12:17:02.677Z,2.00
2018-07-17T12:19:30.312Z,1.77
2018-07-17T12:21:57.950Z,1.90
2018-07-17T12:24:25.555Z,1.95
2018-07-17T12:26:53.160Z,1.70
2018-07-17T12:29:20.808Z,1.60
2018-07-17T12:31:48.532Z,1.60
2018-07-17T12:34:16.104Z,2.20
2018-07-17T12:36:43.690Z,2.00
2018-07-17T12:39:12.184Z,1.65
2018-07-17T12:41:39.944Z,1.87
2018-07-17T12:44:07.825Z,1.75
2018-07-17T12:46:35.524Z,2.15
2018-07-17T12:49:03.300Z,2.22
2018-07-17T12:51:31.139Z,2.10
2018-07-17T12:53:59.067Z,2.00
2018-07-17T12:56:26.766Z,2.10
2018-07-17T12:58:54.872Z,1.90
2018-07-17T13:01:23.431Z,2.15
2018-07-17T13:03:51.025Z,2.10
2018-07-17T13:06:18.641Z,2.22
2018-07-17T13:08:46.315Z,2.15
2018-07-17T13:11:13.925Z,1.90
2018-07-17T13:13:41.558Z,1.50
2018-07-17T13:16:09.228Z,1.90
2018-07-17T13:18:36.879Z,1.90
2018-07-17T13:21:04.485Z,2.37
2018-07-17T13:23:32.202Z,3.30
2018-07-17T13:25:59.816Z,2.90
2018-07-17T13:28:27.363Z,2.42
2018-07-17T13:30:54.924Z,2.20
2018-07-17T13:33:22.537Z,1.90
2018-07-17T13:35:51.191Z,2.25
2018-07-17T13:38:18.973Z,2.17
2018-07-17T13:40:46.549Z,1.92
2018-07-17T13:43:14.132Z,2.00
2018-07-17T13:45:41.769Z,2.10
2018-07-17T13:48:09.373Z,2.30
2018-07-17T13:50:37.399Z,2.00
2018-07-17T13:53:05.276Z,2.30
2018-07-17T13:55:33.824Z,2.30
2018-07-17T13:58:01.383Z,2.12
2018-07-17T14:00:29.040Z,2.20
2018-07-17T14:02:56.609Z,2.20
2018-07-17T14:05:24.175Z,1.87
2018-07-17T14:07:51.752Z,2.20
2018-07-17T14:10:19.329Z,2.55
2018-07-17T14:12:46.967Z,2.50
2018-07-17T14:15:14.570Z,2.12
2018-07-17T14:17:42.671Z,2.58
2018-07-17T14:20:22.421Z,2.25
2018-07-17T14:22:55.880Z,2.37
2018-07-17T14:25:23.774Z,2.37
2018-07-17T14:27:51.396Z,2.52
2018-07-17T14:30:19.039Z,2.70
2018-07-17T14:32:46.728Z,2.40
2018-07-17T14:35:14.340Z,2.60
2018-07-17T14:37:42.030Z,2.62
2018-07-17T14:40:09.762Z,2.62
2018-07-17T14:42:37.409Z,2.60
2018-07-17T14:45:05.421Z,2.62
2018-07-17T14:47:32.996Z,2.65
2018-07-17T14:50:00.789Z,2.17
2018-07-17T14:52:28.398Z,2.45
2018-07-17T14:54:59.709Z,2.30
2018-07-17T14:57:27.450Z,2.30
2018-07-17T14:59:55.397Z,2.17
2018-07-17T15:02:23.059Z,2.00
2018-07-17T15:04:51.313Z,2.17
2018-07-17T15:07:19.445Z,2.20
2018-07-17T15:09:47.169Z,1.90
2018-07-17T15:12:14.780Z,2.00
2018-07-17T15:14:42.396Z,2.20
2018-07-17T15:17:10.123Z,1.70
2018-07-17T15:19:37.818Z,1.70
2018-07-17T15:22:08.861Z,2.02
2018-07-17T15:24:36.479Z,1.90
2018-07-17T15:27:04.320Z,1.85
2018-07-17T15:29:31.936Z,1.85
2018-07-17T15:31:59.605Z,1.52
2018-07-17T15:34:27.397Z,1.57
2018-07-17T15:36:54.997Z,1.75
2018-07-17T15:39:22.608Z,1.40
2018-07-17T15:41:50.810Z,1.50
2018-07-17T15:44:18.427Z,1.75
2018-07-17T15:46:46.060Z,1.50
2018-07-17T15:49:13.641Z,2.20
2018-07-17T15:51:41.360Z,1.90
2018-07-17T15:54:08.943Z,1.60
2018-07-17T15:56:36.525Z,1.37
2018-07-17T15:59:04.226Z,1.60
2018-07-17T16:01:31.840Z,1.50
2018-07-17T16:03:59.419Z,1.60
2018-07-17T16:06:27.096Z,1.53
2018-07-17T16:08:54.675Z,1.50
2018-07-17T16:11:22.376Z,1.40
2018-07-17T16:13:50.218Z,1.70
2018-07-17T16:16:17.779Z,1.60
2018-07-17T16:18:45.419Z,1.70
2018-07-17T16:21:13.105Z,2.30
2018-07-17T16:23:40.917Z,1.60
2018-07-17T16:26:08.592Z,1.70
2018-07-17T16:28:36.146Z,1.50
2018-07-17T16:31:03.831Z,1.70
2018-07-17T16:33:31.503Z,1.33
2018-07-17T16:35:59.231Z,1.63
2018-07-17T16:38:27.104Z,1.63
2018-07-17T16:40:54.708Z,1.60
2018-07-17T16:43:22.336Z,1.50
2018-07-17T16:45:50.040Z,1.77
2018-07-17T16:48:17.796Z,1.80
2018-07-17T16:50:45.455Z,1.80
2018-07-17T16:53:13.048Z,1.40
2018-07-17T16:55:40.613Z,1.70
2018-07-17T16:58:08.172Z,1.80
2018-07-17T17:00:35.921Z,1.63
2018-07-17T17:03:03.658Z,1.43
2018-07-17T17:05:31.309Z,1.30
2018-07-17T17:07:58.903Z,1.30
2018-07-17T17:10:26.495Z,1.70
2018-07-17T17:12:54.093Z,1.60
2018-07-17T17:15:22.352Z,1.90
2018-07-17T17:17:50.257Z,1.97
2018-07-17T17:20:17.985Z,1.90
2018-07-17T17:22:46.033Z,1.73
2018-07-17T17:25:13.692Z,1.30
2018-07-17T17:27:41.333Z,1.77
2018-07-17T17:30:09.015Z,1.50
2018-07-17T17:32:36.802Z,1.23
2018-07-17T17:35:04.441Z,1.70
2018-07-17T17:37:32.090Z,2.00
2018-07-17T17:39:59.701Z,1.73
2018-07-17T17:42:27.401Z,2.03
2018-07-17T17:44:55.140Z,1.70
2018-07-17T17:47:22.772Z,1.50
2018-07-17T17:49:50.352Z,3.07
2018-07-17T17:52:17.997Z,2.30
2018-07-17T17:55:49.167Z,1.70
2018-07-17T17:58:16.896Z,1.37
2018-07-17T18:00:44.447Z,1.50
2018-07-17T18:03:12.048Z,1.90
2018-07-17T18:05:39.608Z,1.70
2018-07-17T18:08:07.305Z,1.30
2018-07-17T18:10:34.879Z,1.90
2018-07-17T18:13:02.560Z,1.60
2018-07-17T18:15:30.285Z,1.57
2018-07-17T18:17:58.275Z,1.50
2018-07-17T18:20:26.051Z,1.70
2018-07-17T18:22:53.726Z,1.60
2018-07-17T18:25:21.709Z,1.63
2018-07-17T18:27:49.511Z,1.97
2018-07-17T18:30:17.265Z,1.53
2018-07-17T18:32:44.893Z,2.00
2018-07-17T18:35:16.924Z,1.70
2018-07-17T18:37:44.553Z,2.53
2018-07-17T18:40:12.398Z,1.90
2018-07-17T18:42:40.097Z,1.80
2018-07-17T18:45:07.729Z,1.67
2018-07-17T18:47:35.453Z,1.83
2018-07-17T18:50:12.585Z,1.97
2018-07-17T18:52:30.901Z,2.33
2018-07-17T18:54:58.825Z,1.70
2018-07-17T18:57:26.593Z,1.90
2018-07-17T18:59:54.214Z,1.80
2018-07-17T19:02:21.926Z,1.90
2018-07-17T19:04:49.592Z,1.77
2018-07-17T19:07:17.332Z,2.07
2018-07-17T19:09:45.061Z,1.80
2018-07-17T19:12:18.610Z,1.80
2018-07-17T19:14:46.225Z,1.90
2018-07-17T19:17:13.889Z,1.90
2018-07-17T19:19:41.682Z,1.93
2018-07-17T19:22:19.124Z,2.50
2018-07-17T19:24:46.878Z,2.03
2018-07-17T19:27:14.546Z,1.70
2018-07-17T19:29:54.732Z,2.00
2018-07-17T19:32:22.379Z,1.90
2018-07-17T19:34:49.935Z,1.87
2018-07-17T19:37:17.724Z,1.70
2018-07-17T19:39:45.344Z,2.37
2018-07-17T19:42:13.026Z,1.60
2018-07-17T19:44:40.620Z,1.63
2018-07-17T19:47:08.298Z,1.70
2018-07-17T19:49:35.884Z,2.10
2018-07-17T19:52:08.907Z,1.93
2018-07-17T19:54:36.492Z,1.80
2018-07-17T19:57:04.324Z,2.10
2018-07-17T19:59:32.043Z,2.43
2018-07-17T20:01:59.690Z,1.70
2018-07-17T20:04:27.289Z,2.13
2018-07-17T20:06:58.990Z,2.20
2018-07-17T20:09:26.692Z,2.40
2018-07-17T20:11:55.486Z,2.37
2018-07-17T20:14:23.154Z,2.00
2018-07-17T20:16:55.444Z,2.33
2018-07-17T20:19:23.306Z,2.50
2018-07-17T20:21:50.972Z,2.23
2018-07-17T20:24:18.565Z,2.30
2018-07-17T20:26:46.256Z,2.63
2018-07-17T20:29:13.837Z,2.50
2018-07-17T20:31:41.456Z,2.10
2018-07-17T20:34:22.177Z,2.30
2018-07-17T20:36:50.066Z,2.80
2018-07-17T20:39:17.717Z,2.73
2018-07-17T20:41:52.604Z,2.80
2018-07-17T20:44:20.390Z,2.50
2018-07-17T20:46:50.101Z,2.43
2018-07-17T20:49:17.684Z,2.60
2018-07-17T20:51:45.324Z,2.90
2018-07-17T20:54:13.162Z,2.27
2018-07-17T20:56:40.736Z,2.80
2018-07-17T20:59:08.328Z,2.83
2018-07-17T21:01:49.601Z,3.00
2018-07-17T21:04:17.209Z,3.07
2018-07-17T21:06:49.449Z,2.33
2018-07-17T21:09:17.104Z,2.40
2018-07-17T21:11:44.776Z,3.00
2018-07-17T21:14:12.384Z,2.67
2018-07-17T21:16:39.985Z,2.50
2018-07-17T21:19:07.572Z,2.90
2018-07-17T21:21:35.218Z,2.27
2018-07-17T21:24:02.882Z,2.43
2018-07-17T21:26:30.488Z,2.30
2018-07-17T21:28:58.222Z,2.93
2018-07-17T21:31:25.825Z,1.80
2018-07-17T21:33:53.451Z,2.23
2018-07-17T21:36:21.087Z,2.13
2018-07-17T21:38:48.725Z,2.00
2018-07-17T21:41:16.376Z,2.63
2018-07-17T21:43:44.018Z,2.20
2018-07-17T21:46:11.746Z,2.03
2018-07-17T21:48:39.368Z,1.80
2018-07-17T21:51:07.005Z,1.60
2018-07-17T21:53:34.625Z,1.67
2018-07-17T21:56:02.240Z,2.00
2018-07-17T21:58:29.854Z,2.33
2018-07-17T22:00:57.813Z,2.10
2018-07-17T22:03:25.706Z,2.57
2018-07-17T22:05:53.357Z,1.83
2018-07-17T22:08:20.985Z,2.33
2018-07-17T22:10:48.700Z,2.40
2018-07-17T22:13:16.339Z,2.57
2018-07-17T22:15:53.976Z,2.00
2018-07-17T22:18:21.729Z,2.40
2018-07-17T22:21:02.177Z,2.50
2018-07-17T22:23:29.834Z,2.33
2018-07-17T22:25:57.408Z,2.10
2018-07-17T22:28:28.628Z,2.60
2018-07-17T22:30:56.260Z,2.10
2018-07-17T22:33:23.912Z,2.13
2018-07-17T22:35:51.506Z,1.83
2018-07-17T22:38:19.127Z,2.10
2018-07-17T22:40:46.757Z,2.63
2018-07-17T22:43:18.341Z,2.87
2018-07-17T22:45:45.897Z,2.30
2018-07-17T22:48:17.388Z,2.37
2018-07-17T22:50:44.965Z,2.10
2018-07-17T22:53:12.584Z,1.97
2018-07-17T22:55:44.628Z,2.10
2018-07-17T22:58:12.289Z,1.70
2018-07-17T23:00:39.922Z,1.93
2018-07-17T23:03:07.526Z,2.20
2018-07-17T23:05:35.117Z,1.90
2018-07-17T23:08:02.813Z,1.70
2018-07-17T23:10:30.467Z,1.50
2018-07-17T23:12:58.103Z,1.80
2018-07-17T23:15:25.825Z,2.10
2018-07-17T23:17:53.452Z,1.80
2018-07-17T23:20:21.068Z,1.53
2018-07-17T23:22:53.068Z,1.80
2018-07-17T23:25:22.941Z,2.30
2018-07-17T23:27:50.964Z,1.80
2018-07-17T23:30:18.753Z,1.30
2018-07-17T23:32:47.448Z,2.20
2018-07-17T23:35:15.209Z,1.60
2018-07-17T23:37:42.828Z,2.10
2018-07-17T23:40:10.476Z,2.20
2018-07-17T23:42:38.276Z,1.50
2018-07-17T23:45:05.939Z,2.00
2018-07-17T23:47:33.739Z,2.53
2018-07-17T23:50:01.394Z,1.73
2018-07-17T23:52:29.045Z,1.67
2018-07-17T23:54:56.630Z,1.70
2018-07-17T23:57:24.265Z,1.70
2018-07-17T23:59:51.985Z,2.03
